Time;durP1;ratioP1;P1;durP2;ratioP2;P2;SDS_P1;SDS_P2;PMS_P1;PMS_P2;Temp;Humidity;BMP_temperature;BMP_pressure;BME280_temperature;BME280_humidity;BME280_pressure;Samples;Min_cycle;Max_cycle;Signal;HPM_P1;HPM_P2
2022/09/08 00:00:09;;;;;;;5.67;2.47;;;;;;;18.89;74.86;100614.72;5034250;28;20936;-74
2022/09/08 00:02:36;;;;;;;7.80;2.70;;;;;;;18.87;74.17;100619.00;5033131;28;20456;-74
2022/09/08 00:05:04;;;;;;;5.40;2.57;;;;;;;18.86;74.41;100614.66;5033137;28;20443;-74
2022/09/08 00:07:32;;;;;;;5.10;2.20;;;;;;;18.85;73.52;100613.84;5033097;28;20467;-74
2022/09/08 00:09:58;;;;;;;5.00;2.30;;;;;;;18.84;73.49;100612.25;5033123;28;20534;-74
2022/09/08 00:12:25;;;;;;;6.20;2.87;;;;;;;18.86;72.63;100611.91;5033094;28;20451;-74
2022/09/08 00:14:51;;;;;;;4.70;2.33;;;;;;;18.83;72.45;100612.63;5032968;28;20490;-75
2022/09/08 00:17:18;;;;;;;10.10;2.60;;;;;;;18.78;72.55;100602.72;5032987;28;20463;-74
2022/09/08 00:19:45;;;;;;;6.30;2.67;;;;;;;18.76;73.19;100602.25;5033069;28;20443;-74
2022/09/08 00:22:13;;;;;;;7.73;2.47;;;;;;;18.76;72.66;100599.50;5032999;28;20489;-74
2022/09/08 00:24:39;;;;;;;4.80;2.27;;;;;;;18.71;73.32;100599.78;5032944;28;20455;-74
2022/09/08 00:27:06;;;;;;;6.00;2.80;;;;;;;18.70;73.73;100603.69;5032870;28;20449;-74
2022/09/08 00:29:33;;;;;;;8.40;2.57;;;;;;;18.65;73.30;100599.22;5032596;28;20981;-74
2022/09/08 00:32:00;;;;;;;4.67;2.20;;;;;;;18.65;73.77;100601.97;5032892;28;20446;-74
2022/09/08 00:34:26;;;;;;;4.90;2.47;;;;;;;18.63;73.01;100608.97;5032841;28;20479;-74
2022/09/08 00:36:53;;;;;;;5.20;2.10;;;;;;;18.59;73.21;100597.09;5034406;28;20509;-72
2022/09/08 00:39:21;;;;;;;5.07;2.23;;;;;;;18.59;72.98;100602.59;5036698;28;20466;-73
2022/09/08 00:41:47;;;;;;;7.80;2.80;;;;;;;18.55;73.83;100608.00;5036685;28;20522;-73
2022/09/08 00:44:38;;;;;;;5.60;2.20;;;;;;;18.51;74.15;100604.38;5036588;28;20451;-73
2022/09/08 00:47:12;;;;;;;7.20;2.70;;;;;;;18.49;75.14;100605.88;5036580;28;20420;-73
2022/09/08 00:49:39;;;;;;;4.70;2.33;;;;;;;18.44;74.41;100606.13;5036255;28;20434;-73
2022/09/08 00:52:05;;;;;;;5.67;2.70;;;;;;;18.39;73.23;100604.47;5036469;28;20450;-73
2022/09/08 00:54:33;;;;;;;4.70;2.03;;;;;;;18.40;74.29;100604.09;5036019;28;20478;-73
2022/09/08 00:57:00;;;;;;;9.80;2.80;;;;;;;18.37;73.76;100602.09;5036257;28;20447;-72
2022/09/08 00:59:26;;;;;;;6.63;2.80;;;;;;;18.36;74.73;100594.97;5035957;28;20878;-73
2022/09/08 01:01:54;;;;;;;8.10;2.40;;;;;;;18.32;74.71;100596.84;5036265;28;20454;-75
2022/09/08 01:04:21;;;;;;;7.03;2.50;;;;;;;18.28;74.94;100593.22;5036263;28;20493;-74
2022/09/08 01:12:45;;;;;;;12.13;2.80;;;;;;;18.17;74.95;100591.34;5036300;28;20415;-73
2022/09/08 01:15:16;;;;;;;5.43;2.63;;;;;;;18.17;74.99;100594.09;5035979;28;20482;-74
2022/09/08 01:17:43;;;;;;;4.03;1.87;;;;;;;18.14;75.03;100596.38;5035672;28;21001;-74
2022/09/08 01:20:10;;;;;;;5.70;2.33;;;;;;;18.14;76.06;100590.09;5036054;28;20435;-73
2022/09/08 01:22:57;;;;;;;4.90;2.03;;;;;;;18.08;75.71;100588.78;5036014;28;20508;-73
2022/09/08 01:25:42;;;;;;;5.60;2.00;;;;;;;18.03;75.65;100598.06;5035701;28;20435;-73
2022/09/08 01:28:17;;;;;;;5.57;2.50;;;;;;;18.06;75.69;100605.59;5035807;28;20471;-74
2022/09/08 01:30:46;;;;;;;6.50;2.70;;;;;;;18.07;75.85;100598.94;5035936;28;20434;-74
2022/09/08 01:33:14;;;;;;;5.33;2.43;;;;;;;18.04;76.11;100590.63;5035754;28;20451;-73
2022/09/08 01:35:43;;;;;;;6.47;2.77;;;;;;;18.05;75.46;100586.72;5035601;28;20487;-73
2022/09/08 01:38:10;;;;;;;4.83;2.20;;;;;;;18.06;75.32;100594.63;5035573;28;20455;-73
2022/09/08 01:40:38;;;;;;;4.80;2.30;;;;;;;18.04;75.13;100593.38;5035264;28;20624;-73
2022/09/08 01:43:04;;;;;;;5.37;2.40;;;;;;;18.08;74.24;100597.00;5035528;28;20556;-73
2022/09/08 01:45:32;;;;;;;5.80;2.20;;;;;;;18.09;75.08;100604.06;5035457;28;20442;-73
2022/09/08 01:47:58;;;;;;;4.87;2.00;;;;;;;18.13;74.22;100602.22;5034464;28;20459;-73
2022/09/08 01:50:25;;;;;;;5.53;2.30;;;;;;;18.14;73.55;100595.59;5035099;28;20944;-73
2022/09/08 01:52:51;;;;;;;4.50;2.33;;;;;;;18.13;73.82;100580.28;5035360;28;20443;-73
2022/09/08 01:55:18;;;;;;;7.23;2.60;;;;;;;18.14;74.38;100585.41;5035278;28;20487;-73
2022/09/08 01:57:44;;;;;;;15.43;2.90;;;;;;;18.13;73.89;100588.50;5035038;28;20965;-74
2022/09/08 02:00:12;;;;;;;4.93;2.17;;;;;;;18.13;72.73;100577.53;5035198;28;20420;-74
2022/09/08 02:02:40;;;;;;;11.03;2.60;;;;;;;18.10;73.08;100565.31;5035421;28;20547;-74
2022/09/08 02:05:08;;;;;;;4.40;1.83;;;;;;;18.05;72.05;100562.84;5035248;28;20439;-71
2022/09/08 02:07:37;;;;;;;4.90;1.90;;;;;;;18.04;71.13;100555.78;5034693;28;20521;-72
2022/09/08 02:10:05;;;;;;;4.90;2.13;;;;;;;18.02;70.23;100566.31;5035022;28;20443;-71
2022/09/08 02:12:32;;;;;;;4.80;2.03;;;;;;;18.05;70.25;100559.31;5035001;28;20521;-71
2022/09/08 02:14:58;;;;;;;4.57;2.20;;;;;;;18.04;70.56;100563.22;5035412;28;20486;-72
2022/09/08 02:17:24;;;;;;;4.77;1.77;;;;;;;18.03;69.33;100553.41;5035073;28;20470;-72
2022/09/08 02:19:52;;;;;;;5.40;2.10;;;;;;;18.02;70.19;100560.03;5034883;28;20448;-72
2022/09/08 02:22:19;;;;;;;13.03;3.00;;;;;;;18.02;69.70;100569.06;5034835;28;20505;-72
2022/09/08 02:24:46;;;;;;;6.23;1.97;;;;;;;17.98;69.27;100565.41;5034794;28;20439;-72
2022/09/08 02:27:12;;;;;;;4.20;1.80;;;;;;;18.03;68.58;100569.84;5034392;28;21047;-72
2022/09/08 02:29:39;;;;;;;5.43;2.00;;;;;;;18.05;68.82;100568.34;5034672;28;20446;-72
2022/09/08 02:32:05;;;;;;;8.20;2.30;;;;;;;18.01;68.64;100564.69;5034643;28;20447;-72
2022/09/08 02:34:32;;;;;;;8.13;2.70;;;;;;;17.98;68.03;100564.63;5034575;28;20470;-72
2022/09/08 02:37:00;;;;;;;6.53;2.20;;;;;;;18.00;67.21;100556.84;5034384;28;20475;-72
2022/09/08 02:39:26;;;;;;;7.13;2.50;;;;;;;18.01;67.05;100559.22;5034423;28;20493;-72
2022/09/08 02:41:53;;;;;;;6.10;2.37;;;;;;;17.95;66.61;100563.38;5034422;28;20458;-71
2022/09/08 02:44:19;;;;;;;4.60;2.10;;;;;;;17.94;66.07;100561.00;5034430;28;20902;-71
2022/09/08 02:46:46;;;;;;;7.00;2.03;;;;;;;17.95;65.93;100559.84;5034266;28;20442;-71
2022/09/08 02:49:13;;;;;;;3.90;1.80;;;;;;;17.97;66.39;100552.06;5034126;28;20462;-71
2022/09/08 02:51:39;;;;;;;5.73;2.27;;;;;;;17.96;67.21;100555.94;5034214;28;20501;-72
2022/09/08 02:54:07;;;;;;;6.63;2.47;;;;;;;17.93;68.02;100557.47;5033849;28;20963;-72
2022/09/08 02:56:34;;;;;;;5.20;2.30;;;;;;;17.90;67.97;100547.19;5034068;28;21012;-72
2022/09/08 02:59:01;;;;;;;4.73;1.90;;;;;;;17.87;65.74;100537.72;5033636;28;20487;-72
2022/09/08 03:01:28;;;;;;;4.63;1.97;;;;;;;17.80;65.39;100536.75;5034054;28;20493;-72
2022/09/08 03:03:54;;;;;;;5.13;2.20;;;;;;;17.79;66.16;100535.13;5033674;28;20932;-72
2022/09/08 03:06:21;;;;;;;4.50;2.10;;;;;;;17.77;66.74;100535.50;5033936;28;20469;-71
2022/09/08 03:08:47;;;;;;;4.73;1.77;;;;;;;17.79;65.48;100533.19;5033946;28;20467;-73
2022/09/08 03:11:16;;;;;;;7.03;1.67;;;;;;;17.79;65.87;100522.22;5033843;28;20455;-73
2022/09/08 03:13:42;;;;;;;4.97;2.00;;;;;;;17.80;66.09;100531.28;5033878;28;20458;-73
2022/09/08 03:16:09;;;;;;;5.27;2.07;;;;;;;17.74;66.00;100527.97;5033710;28;20490;-73
2022/09/08 03:18:35;;;;;;;14.30;2.03;;;;;;;17.69;66.73;100527.41;5033677;28;20471;-73
2022/09/08 03:21:05;;;;;;;5.13;2.17;;;;;;;17.72;67.10;100518.50;5033415;28;20850;-73
2022/09/08 03:23:33;;;;;;;4.40;1.37;;;;;;;17.66;65.72;100515.19;5033718;28;20447;-73
2022/09/08 03:26:02;;;;;;;4.50;1.67;;;;;;;17.66;66.16;100520.66;5033328;28;20475;-73
2022/09/08 03:28:30;;;;;;;4.40;1.90;;;;;;;17.72;65.59;100515.75;5033546;28;20471;-73
2022/09/08 03:30:56;;;;;;;4.70;1.70;;;;;;;17.73;65.80;100495.44;5033565;28;20445;-73
2022/09/08 03:33:23;;;;;;;7.40;1.73;;;;;;;17.74;65.68;100497.84;5033507;28;20447;-73
2022/09/08 03:35:50;;;;;;;4.70;1.30;;;;;;;17.69;64.60;100492.59;5033448;28;20513;-72
2022/09/08 03:38:17;;;;;;;7.37;2.60;;;;;;;17.56;65.74;100494.59;5033372;28;20471;-73
2022/09/08 03:40:44;;;;;;;3.93;1.33;;;;;;;17.52;65.21;100493.69;5033123;28;20521;-73
2022/09/08 03:43:11;;;;;;;6.10;2.07;;;;;;;17.57;66.48;100509.06;5033364;28;20466;-73
2022/09/08 03:45:43;;;;;;;7.67;1.93;;;;;;;17.58;66.91;100513.44;5033279;28;20911;-73
2022/09/08 03:48:09;;;;;;;4.43;1.67;;;;;;;17.59;65.57;100506.81;5033274;28;20474;-73
2022/09/08 03:50:36;;;;;;;4.73;2.40;;;;;;;17.56;65.87;100505.53;5033507;28;20443;-73
2022/09/08 03:53:02;;;;;;;6.60;1.80;;;;;;;17.57;65.29;100506.34;5033282;28;20442;-73
2022/09/08 03:55:29;;;;;;;6.67;2.37;;;;;;;17.52;65.15;100506.59;5033086;28;20875;-73
2022/09/08 03:57:56;;;;;;;4.60;1.77;;;;;;;17.54;64.72;100513.34;5032932;28;20830;-72
2022/09/08 04:00:22;;;;;;;5.00;2.27;;;;;;;17.47;63.07;100504.91;5032897;28;20810;-73
2022/09/08 04:02:50;;;;;;;4.97;2.30;;;;;;;17.50;65.19;100504.22;5033104;28;20435;-73
2022/09/08 04:05:17;;;;;;;4.87;1.97;;;;;;;17.51;65.03;100502.28;5032822;28;21006;-73
2022/09/08 04:07:43;;;;;;;6.47;1.60;;;;;;;17.46;63.62;100494.31;5033330;28;20478;-71
2022/09/08 04:10:11;;;;;;;4.70;2.00;;;;;;;17.43;63.94;100490.31;5033058;28;20454;-71
2022/09/08 04:12:38;;;;;;;7.07;2.20;;;;;;;17.35;65.30;100477.56;5035942;28;20542;-71
2022/09/08 04:15:06;;;;;;;4.93;1.83;;;;;;;17.32;64.38;100479.09;5037382;28;20446;-71
2022/09/08 04:17:33;;;;;;;4.57;1.67;;;;;;;17.35;65.89;100483.88;5037051;28;20886;-71
2022/09/08 04:20:00;;;;;;;5.90;1.93;;;;;;;17.32;65.25;100487.31;5037074;28;20453;-71
2022/09/08 04:22:27;;;;;;;6.60;2.00;;;;;;;17.32;65.74;100490.03;5037079;28;20851;-70
2022/09/08 04:24:53;;;;;;;6.20;2.00;;;;;;;17.32;64.86;100481.03;5036980;28;20446;-71
2022/09/08 04:27:21;;;;;;;5.37;2.07;;;;;;;17.31;65.26;100479.41;5036779;28;20458;-71
2022/09/08 04:29:47;;;;;;;4.57;2.10;;;;;;;17.30;66.37;100481.38;5036913;28;20439;-71
2022/09/08 04:32:14;;;;;;;4.93;1.90;;;;;;;17.27;64.89;100471.13;5036953;28;20500;-71
2022/09/08 04:34:40;;;;;;;7.40;2.00;;;;;;;17.20;64.49;100468.19;5036627;28;20950;-71
2022/09/08 04:37:08;;;;;;;7.70;1.77;;;;;;;17.22;64.76;100465.91;5036451;28;21007;-71
2022/09/08 04:39:35;;;;;;;11.87;2.13;;;;;;;17.24;64.14;100463.59;5036747;28;20439;-71
2022/09/08 04:42:01;;;;;;;5.03;2.30;;;;;;;17.20;64.24;100464.66;5036730;28;20485;-71
2022/09/08 04:44:27;;;;;;;14.70;1.90;;;;;;;17.23;64.39;100472.97;5036360;28;21017;-71
2022/09/08 04:46:54;;;;;;;7.90;2.10;;;;;;;17.26;64.14;100475.00;5036669;28;20493;-72
2022/09/08 04:49:20;;;;;;;4.00;1.87;;;;;;;17.25;64.15;100470.66;5036286;28;20466;-70
2022/09/08 04:51:49;;;;;;;5.33;2.03;;;;;;;17.27;64.53;100467.59;5036520;28;20826;-71
2022/09/08 04:54:17;;;;;;;5.30;2.10;;;;;;;17.28;63.78;100478.19;5036480;28;20458;-70
2022/09/08 04:56:44;;;;;;;5.47;2.00;;;;;;;17.33;63.61;100468.94;5036329;28;20482;-71
2022/09/08 04:59:10;;;;;;;10.50;2.57;;;;;;;17.36;63.94;100468.25;5036491;28;20851;-71
2022/09/08 05:01:37;;;;;;;6.27;2.43;;;;;;;17.37;64.53;100467.09;5036740;28;20449;-71
2022/09/08 05:04:05;;;;;;;5.57;1.83;;;;;;;17.35;63.48;100464.72;5036798;28;20458;-70
2022/09/08 05:06:34;;;;;;;5.27;2.30;;;;;;;17.39;63.71;100473.00;5036831;28;20478;-70
2022/09/08 05:09:01;;;;;;;4.80;2.17;;;;;;;17.37;63.99;100478.03;5036662;28;20458;-71
2022/09/08 05:11:32;;;;;;;7.37;2.43;;;;;;;17.40;63.62;100478.13;5036759;28;20474;-70
2022/09/08 05:13:58;;;;;;;6.03;2.27;;;;;;;17.39;64.52;100484.75;5036472;28;20467;-70
2022/09/08 05:16:27;;;;;;;6.80;2.07;;;;;;;17.39;63.81;100473.78;5036018;28;20475;-71
2022/09/08 05:18:55;;;;;;;5.17;1.90;;;;;;;17.37;62.49;100480.78;5036008;28;20494;-71
2022/09/08 05:21:22;;;;;;;5.23;1.63;;;;;;;17.36;62.79;100479.19;5036187;28;20447;-72
2022/09/08 05:23:50;;;;;;;5.33;2.37;;;;;;;17.38;62.38;100482.38;5034903;28;20449;-72
2022/09/08 05:26:18;;;;;;;4.50;1.93;;;;;;;17.39;63.00;100479.25;5036018;28;20506;-72
2022/09/08 05:28:46;;;;;;;4.50;1.97;;;;;;;17.39;62.47;100479.25;5036188;28;20475;-72
2022/09/08 05:31:14;;;;;;;4.93;1.80;;;;;;;17.41;64.46;100478.94;5035797;28;20435;-71
2022/09/08 05:33:41;;;;;;;5.83;2.10;;;;;;;17.37;63.56;100470.63;5036172;28;20440;-72
2022/09/08 05:36:13;;;;;;;6.50;2.17;;;;;;;17.38;63.30;100477.69;5035476;28;21000;-71
2022/09/08 05:38:40;;;;;;;4.33;1.60;;;;;;;17.39;63.33;100481.22;5035869;28;20475;-70
2022/09/08 05:41:09;;;;;;;4.17;1.63;;;;;;;17.39;63.67;100483.94;5035559;28;20443;-71
2022/09/08 05:43:36;;;;;;;23.17;2.83;;;;;;;17.46;63.99;100480.63;5035666;28;20447;-71
2022/09/08 05:46:04;;;;;;;5.13;2.03;;;;;;;17.45;63.29;100470.81;5035654;28;20439;-70
2022/09/08 05:48:31;;;;;;;4.83;2.30;;;;;;;17.48;63.68;100475.56;5035597;28;20462;-72
2022/09/08 05:50:58;;;;;;;6.63;2.27;;;;;;;17.51;62.84;100469.41;5035595;28;20443;-73
2022/09/08 05:53:25;;;;;;;6.47;2.37;;;;;;;17.58;63.55;100470.41;5035813;28;20482;-70
2022/09/08 05:55:57;;;;;;;8.73;2.53;;;;;;;17.58;62.11;100459.44;5035698;28;20481;-72
2022/09/08 06:01:00;;;;;;;5.90;2.60;;;;;;;17.58;62.96;100475.09;5033273;28;20846;-75
2022/09/08 06:03:28;;;;;;;8.73;2.50;;;;;;;17.51;64.04;100470.19;5035350;28;20431;-76
2022/09/08 06:05:55;;;;;;;6.47;3.00;;;;;;;17.57;63.57;100477.00;5035201;28;20439;-73
2022/09/08 06:08:22;;;;;;;5.10;2.10;;;;;;;17.61;64.05;100477.09;5035120;28;20871;-75
2022/09/08 06:10:50;;;;;;;5.33;2.43;;;;;;;17.60;62.74;100486.47;5015266;28;20452;-73
2022/09/08 06:13:16;;;;;;;6.50;2.20;;;;;;;17.59;63.64;100480.19;5015269;28;20451;-73
2022/09/08 06:15:43;;;;;;;6.70;2.37;;;;;;;17.65;63.57;100480.75;5015517;28;20452;-72
2022/09/08 06:18:09;;;;;;;6.80;2.60;;;;;;;17.70;63.07;100476.94;5015124;28;20514;-72
2022/09/08 06:20:37;;;;;;;11.73;2.80;;;;;;;17.70;62.37;100474.19;5015043;28;20467;-73
2022/09/08 06:23:04;;;;;;;9.27;2.60;;;;;;;17.67;62.59;100472.97;5015255;28;20502;-74
2022/09/08 06:25:30;;;;;;;4.67;1.97;;;;;;;17.64;62.89;100465.44;5015164;28;20448;-73
2022/09/08 06:28:04;;;;;;;5.90;2.00;;;;;;;17.65;63.27;100470.56;5015129;28;20448;-72
2022/09/08 06:30:31;;;;;;;8.30;2.50;;;;;;;17.69;63.43;100472.63;5014955;28;20460;-73
2022/09/08 06:33:01;;;;;;;5.90;1.80;;;;;;;17.78;62.93;100470.53;5014970;28;20440;-73
2022/09/08 06:35:32;;;;;;;6.43;2.40;;;;;;;17.73;62.03;100470.75;5014574;28;20439;-72
2022/09/08 06:38:02;;;;;;;5.43;2.23;;;;;;;17.83;62.36;100470.25;5014898;28;20499;-74
2022/09/08 06:40:34;;;;;;;5.77;2.80;;;;;;;17.79;62.28;100478.38;5014770;28;20460;-72
2022/09/08 06:43:06;;;;;;;4.97;2.00;;;;;;;17.76;62.90;100465.41;5014749;28;20462;-72
2022/09/08 06:45:36;;;;;;;4.93;2.40;;;;;;;17.81;62.26;100473.38;5014661;28;20429;-73
2022/09/08 06:48:19;;;;;;;7.77;2.90;;;;;;;17.79;63.04;100464.69;5014244;28;20836;-74
2022/09/08 06:50:56;;;;;;;7.20;2.33;;;;;;;17.80;62.35;100474.53;5014586;28;20472;-73
2022/09/08 06:53:27;;;;;;;5.07;1.90;;;;;;;17.74;62.62;100469.63;5014314;28;20976;-74
2022/09/08 06:55:59;;;;;;;8.20;2.97;;;;;;;17.80;62.42;100471.00;5014307;28;20425;-72
2022/09/08 06:58:30;;;;;;;4.17;2.07;;;;;;;17.88;62.32;100468.09;5014546;28;20542;-72
2022/09/08 07:01:01;;;;;;;7.40;2.90;;;;;;;17.88;61.34;100465.34;5014122;28;20455;-73
2022/09/08 07:03:44;;;;;;;4.23;2.20;;;;;;;17.98;62.62;100457.75;5014486;28;20450;-73
2022/09/08 07:06:11;;;;;;;6.67;3.00;;;;;;;18.06;62.78;100451.25;5014402;28;20487;-73
2022/09/08 07:09:16;;;;;;;6.73;2.73;;;;;;;18.13;62.55;100451.44;5014055;28;20461;-72
2022/09/08 07:12:04;;;;;;;6.40;2.70;;;;;;;18.15;63.31;100444.47;4934426;29;20432;-74
2022/09/08 07:14:57;;;;;;;9.97;2.40;;;;;;;18.22;62.78;100443.03;4934449;29;20976;-73
2022/09/08 07:17:29;;;;;;;6.27;2.30;;;;;;;18.29;62.16;100446.75;4934347;29;20934;-73
2022/09/08 07:19:57;;;;;;;8.70;2.47;;;;;;;18.36;62.91;100449.63;4934266;29;20555;-74
2022/09/08 07:22:38;;;;;;;8.80;3.03;;;;;;;18.49;61.54;100444.03;4934210;29;20459;-73
2022/09/08 07:25:17;;;;;;;6.30;2.50;;;;;;;18.55;62.33;100437.91;4934330;29;20431;-73
2022/09/08 07:27:47;;;;;;;7.03;2.70;;;;;;;18.58;60.87;100431.69;4934178;29;20432;-73
2022/09/08 07:30:16;;;;;;;8.37;3.00;;;;;;;18.73;61.03;100434.81;4934037;29;20470;-73
2022/09/08 07:32:46;;;;;;;5.87;2.50;;;;;;;18.82;61.83;100449.91;4934155;29;20993;-75
2022/09/08 07:35:24;;;;;;;6.53;2.63;;;;;;;18.93;62.36;100454.81;4933918;29;20443;-74
2022/09/08 07:37:52;;;;;;;9.03;2.70;;;;;;;18.93;61.25;100452.84;4933997;29;20480;-71
2022/09/08 07:40:29;;;;;;;9.50;3.20;;;;;;;18.96;61.14;100446.66;4933958;29;20882;-72
2022/09/08 07:42:57;;;;;;;6.40;2.47;;;;;;;19.08;61.46;100456.66;4985901;28;20454;-72
2022/09/08 07:45:33;;;;;;;7.60;2.70;;;;;;;19.02;62.07;100452.63;5013436;28;20523;-72
2022/09/08 07:48:07;;;;;;;7.67;2.60;;;;;;;19.07;61.64;100453.13;5013390;28;20482;-75
2022/09/08 07:53:41;;;;;;;5.37;2.00;;;;;;;19.18;61.64;100453.38;5007874;28;20543;-71
2022/09/08 07:56:15;;;;;;;7.40;3.43;;;;;;;19.20;61.80;100456.53;5013599;28;20431;-73
2022/09/08 07:58:50;;;;;;;4.67;2.40;;;;;;;19.23;61.78;100452.28;5013196;28;20543;-74
2022/09/08 08:01:30;;;;;;;7.40;2.10;;;;;;;19.24;61.81;100445.63;5013476;28;20428;-73
2022/09/08 08:04:09;;;;;;;6.40;2.30;;;;;;;19.13;62.35;100450.91;5013541;28;20440;-74
2022/09/08 08:06:39;;;;;;;4.90;2.80;;;;;;;19.16;63.77;100461.16;5013532;28;20767;-74
2022/09/08 08:09:21;;;;;;;7.47;2.67;;;;;;;19.18;64.70;100450.63;5013473;28;20462;-75
2022/09/08 08:12:00;;;;;;;10.27;3.30;;;;;;;19.17;64.38;100451.78;5013447;28;20437;-74
2022/09/08 08:14:32;;;;;;;7.93;3.10;;;;;;;19.16;63.17;100453.72;5013297;28;20431;-77
2022/09/08 08:17:12;;;;;;;6.20;2.60;;;;;;;19.14;63.82;100464.28;5013086;28;20815;-74
2022/09/08 08:20:24;;;;;;;4.03;1.80;;;;;;;19.12;64.91;100457.53;5013419;28;20468;-77
2022/09/08 08:23:15;;;;;;;5.60;2.83;;;;;;;19.02;65.76;100456.19;5013540;28;20889;-75
2022/09/08 08:25:51;;;;;;;7.00;2.83;;;;;;;18.97;67.13;100459.22;5010659;28;20460;-72
2022/09/08 08:28:20;;;;;;;21.27;3.33;;;;;;;18.90;69.66;100453.56;5013102;28;20917;-75
2022/09/08 08:30:58;;;;;;;6.13;2.40;;;;;;;18.78;73.71;100451.78;5013288;28;20468;-73
2022/09/08 08:33:29;;;;;;;7.83;3.00;;;;;;;18.72;77.46;100442.22;5013480;28;20439;-75
2022/09/08 08:36:01;;;;;;;6.27;2.77;;;;;;;18.58;80.04;100433.66;5012934;28;20428;-71
2022/09/08 08:38:30;;;;;;;5.00;2.70;;;;;;;18.46;82.09;100433.75;5013628;28;20472;-77
2022/09/08 08:40:58;;;;;;;9.13;3.80;;;;;;;18.31;83.29;100429.91;5014336;28;20937;-77
2022/09/08 08:43:46;;;;;;;8.33;3.10;;;;;;;18.24;84.48;100433.31;5013464;28;20998;-74
2022/09/08 08:46:25;;;;;;;7.73;3.90;;;;;;;18.21;85.14;100433.22;5012973;28;20478;-74
2022/09/08 08:49:04;;;;;;;7.43;3.20;;;;;;;18.02;85.69;100439.44;5013073;28;20483;-76
2022/09/08 08:51:51;;;;;;;5.77;2.30;;;;;;;18.01;87.30;100440.56;5013090;28;20522;-72
2022/09/08 08:54:37;;;;;;;5.90;2.60;;;;;;;18.03;88.18;100422.63;5012827;28;20463;-72
2022/09/08 08:57:20;;;;;;;5.57;3.00;;;;;;;18.06;88.36;100421.09;5013557;28;20511;-74
2022/09/08 09:00:09;;;;;;;12.33;4.27;;;;;;;18.05;88.63;100405.81;5016474;28;21055;-73
2022/09/08 09:03:01;;;;;;;5.77;3.20;;;;;;;18.07;89.35;100412.53;5016902;28;20424;-73
2022/09/08 09:05:48;;;;;;;9.43;4.07;;;;;;;17.95;89.17;100403.63;5000263;28;20448;-76
2022/09/08 09:08:50;;;;;;;7.93;3.40;;;;;;;17.68;90.34;100394.31;5016755;28;20450;-76
2022/09/08 09:11:37;;;;;;;7.40;4.10;;;;;;;17.56;93.72;100384.25;5016641;28;20432;-75
2022/09/08 09:14:39;;;;;;;9.90;4.00;;;;;;;17.31;96.03;100384.41;5016950;28;20902;-77
2022/09/08 09:17:33;;;;;;;10.53;4.20;;;;;;;17.24;96.89;100381.47;5016698;28;20495;-77
2022/09/08 09:20:30;;;;;;;9.93;3.93;;;;;;;17.28;98.39;100384.31;5018678;28;20463;-77
2022/09/08 09:23:06;;;;;;;7.97;4.17;;;;;;;17.23;99.60;100379.88;5023285;28;20436;-77
2022/09/08 09:25:35;;;;;;;8.40;3.80;;;;;;;17.28;99.46;100385.09;5022158;28;20436;-77
2022/09/08 09:28:22;;;;;;;7.97;4.10;;;;;;;17.25;100.00;100385.00;5016465;28;20436;-78
2022/09/08 09:31:03;;;;;;;7.53;4.00;;;;;;;17.26;100.00;100379.16;5018631;28;20464;-77
2022/09/08 09:34:04;;;;;;;8.10;4.40;;;;;;;17.27;100.00;100380.00;5016789;28;20482;-76
2022/09/08 09:36:55;;;;;;;7.70;3.77;;;;;;;17.34;100.00;100389.16;5017195;28;20459;-77
2022/09/08 09:39:41;;;;;;;8.13;4.10;;;;;;;17.39;100.00;100394.38;5016431;28;20478;-76
2022/09/08 09:42:26;;;;;;;8.23;4.33;;;;;;;17.37;100.00;100393.94;5017127;28;20436;-77
2022/09/08 09:45:18;;;;;;;10.23;4.90;;;;;;;17.30;100.00;100382.81;5021555;28;20437;-77
2022/09/08 09:48:09;;;;;;;13.30;4.30;;;;;;;16.95;100.00;100366.22;5015686;28;20428;-74
2022/09/08 09:50:52;;;;;;;6.83;4.10;;;;;;;16.81;100.00;100355.69;5015719;28;20476;-73
2022/09/08 09:53:34;;;;;;;14.33;4.33;;;;;;;16.70;100.00;100356.50;5015541;28;20433;-72
2022/09/08 09:56:51;;;;;;;12.57;5.10;;;;;;;16.59;100.00;100356.19;5015725;28;20502;-72
2022/09/08 10:00:01;;;;;;;8.90;5.50;;;;;;;16.51;100.00;100343.47;5015160;28;20492;-73
2022/09/08 10:02:53;;;;;;;12.07;4.23;;;;;;;16.64;100.00;100350.47;5015763;28;20447;-73
2022/09/08 10:05:49;;;;;;;10.90;4.53;;;;;;;16.65;100.00;100346.63;5015795;28;20425;-73
2022/09/08 10:08:36;;;;;;;8.93;4.63;;;;;;;16.70;100.00;100342.84;5015607;28;20443;-73
2022/09/08 10:11:38;;;;;;;8.93;4.90;;;;;;;16.72;100.00;100365.16;5015174;28;20428;-74
2022/09/08 10:14:25;;;;;;;10.43;5.33;;;;;;;16.72;100.00;100368.72;5015279;28;20876;-73
2022/09/08 10:17:10;;;;;;;8.07;4.10;;;;;;;16.72;100.00;100381.56;5015021;28;20432;-75
2022/09/08 10:20:18;;;;;;;13.00;5.40;;;;;;;16.73;100.00;100421.47;5015304;28;20559;-75
2022/09/08 10:23:14;;;;;;;10.50;5.77;;;;;;;16.63;100.00;100420.00;5014968;28;20817;-73
2022/09/08 10:25:59;;;;;;;8.60;5.33;;;;;;;16.56;100.00;100425.28;5015256;28;20436;-72
2022/09/08 10:29:04;;;;;;;9.93;5.67;;;;;;;16.51;100.00;100430.94;5014957;28;20495;-74
2022/09/08 10:32:09;;;;;;;13.80;6.20;;;;;;;16.49;100.00;100439.50;5014814;28;20995;-76
2022/09/08 10:34:59;;;;;;;12.13;6.57;;;;;;;16.39;100.00;100457.19;5014902;28;20451;-72
2022/09/08 10:38:07;;;;;;;11.53;6.30;;;;;;;16.29;100.00;100452.19;5014852;28;20433;-71
2022/09/08 10:40:40;;;;;;;10.70;5.57;;;;;;;16.15;100.00;100433.38;5014563;28;20475;-71
2022/09/08 10:43:36;;;;;;;11.40;4.97;;;;;;;16.16;100.00;100445.13;5014506;28;20884;-70
2022/09/08 10:46:27;;;;;;;11.67;5.87;;;;;;;16.04;100.00;100436.94;5014703;28;20429;-71
2022/09/08 10:49:30;;;;;;;10.87;5.60;;;;;;;16.05;100.00;100428.38;5014649;28;20872;-70
2022/09/08 10:52:25;;;;;;;8.63;4.53;;;;;;;16.02;100.00;100428.25;5010127;28;20455;-69
2022/09/08 10:55:16;;;;;;;34.20;5.73;;;;;;;15.98;100.00;100411.78;5014493;28;20443;-76
2022/09/08 10:57:58;;;;;;;9.60;5.43;;;;;;;16.07;100.00;100392.50;5014075;28;20488;-69
2022/09/08 11:00:35;;;;;;;10.73;4.90;;;;;;;16.03;100.00;100375.22;5014001;28;20476;-70
2022/09/08 11:03:31;;;;;;;11.23;5.37;;;;;;;16.01;100.00;100370.09;5014491;28;20439;-71
2022/09/08 11:06:05;;;;;;;10.70;6.10;;;;;;;16.04;100.00;100360.44;5012268;28;20884;-71
2022/09/08 11:09:06;;;;;;;11.80;5.23;;;;;;;16.10;100.00;100359.03;5014534;28;20431;-70
2022/09/08 11:12:20;;;;;;;9.50;5.30;;;;;;;16.16;100.00;100346.75;5014342;28;20483;-70
2022/09/08 11:15:25;;;;;;;10.97;5.13;;;;;;;16.22;100.00;100359.03;5014313;28;20571;-70
2022/09/08 11:18:03;;;;;;;12.90;5.93;;;;;;;16.28;100.00;100360.38;5014536;28;20526;-70
2022/09/08 11:20:36;;;;;;;8.83;4.70;;;;;;;16.29;100.00;100397.53;5014072;28;20472;-71
2022/09/08 11:23:23;;;;;;;9.87;5.13;;;;;;;16.24;100.00;100397.72;5014064;28;20424;-71
2022/09/08 11:26:03;;;;;;;13.43;6.57;;;;;;;16.27;100.00;100391.59;5014089;28;20428;-70
2022/09/08 11:28:44;;;;;;;11.20;6.47;;;;;;;16.35;100.00;100382.47;5014016;28;20504;-71
2022/09/08 11:31:23;;;;;;;10.27;5.90;;;;;;;16.45;100.00;100380.41;5014221;28;20432;-71
2022/09/08 11:34:13;;;;;;;10.33;5.77;;;;;;;16.40;100.00;100362.28;5013996;28;20428;-70
2022/09/08 11:36:55;;;;;;;9.40;5.80;;;;;;;16.48;100.00;100366.03;5013945;28;20832;-70
2022/09/08 11:39:38;;;;;;;12.03;6.77;;;;;;;16.53;100.00;100357.59;5013846;28;20492;-70
2022/09/08 11:42:32;;;;;;;10.60;5.77;;;;;;;16.62;100.00;100377.38;5013868;28;20428;-71
2022/09/08 11:45:15;;;;;;;12.90;6.33;;;;;;;16.68;100.00;100375.19;5013785;28;20436;-71
2022/09/08 11:48:09;;;;;;;10.60;6.53;;;;;;;16.71;100.00;100360.84;5013660;28;20503;-71
2022/09/08 11:50:43;;;;;;;12.37;5.47;;;;;;;16.74;100.00;100352.75;5013654;28;20483;-70
2022/09/08 11:53:28;;;;;;;10.10;5.17;;;;;;;16.83;100.00;100355.34;5013660;28;20432;-73
2022/09/08 11:56:18;;;;;;;15.43;6.27;;;;;;;16.83;100.00;100339.72;5013507;28;20883;-70
2022/09/08 11:58:58;;;;;;;13.70;5.90;;;;;;;16.88;100.00;100328.53;4993186;28;20538;-70
2022/09/08 12:01:46;;;;;;;10.27;5.27;;;;;;;16.99;100.00;100328.00;5013326;28;20487;-68
2022/09/08 12:04:56;;;;;;;13.67;7.10;;;;;;;17.02;100.00;100319.91;5013430;28;20428;-70
2022/09/08 12:07:48;;;;;;;10.07;6.27;;;;;;;17.11;100.00;100323.25;4987998;28;20459;-68